createdAt,value
2022-09-21T00:00:45.422Z,102726.94
2022-09-21T00:03:12.006Z,102728.28
2022-09-21T00:05:38.644Z,102727.53
2022-09-21T00:08:07.134Z,102730.13
2022-09-21T00:10:34.828Z,102730.69
2022-09-21T00:13:03.033Z,102733.31
2022-09-21T00:15:30.867Z,102735.44
2022-09-21T00:17:59.783Z,102731.75
2022-09-21T00:20:27.054Z,102725.28
2022-09-21T00:22:53.546Z,102720.94
2022-09-21T00:25:20.577Z,102730.31
2022-09-21T00:27:51.236Z,102732.41
2022-09-21T00:30:18.502Z,102724.88
2022-09-21T00:32:45.191Z,102723.34
2022-09-21T00:35:11.707Z,102723.91
2022-09-21T00:37:38.206Z,102724.50
2022-09-21T00:40:05.308Z,102716.19
2022-09-21T00:42:34.851Z,102723.50
2022-09-21T00:45:01.772Z,102723.31
2022-09-21T00:47:35.572Z,102719.22
2022-09-21T00:50:05.991Z,102725.97
2022-09-21T00:52:37.055Z,102726.56
2022-09-21T00:55:14.763Z,102724.25
2022-09-21T00:57:42.297Z,102730.03
2022-09-21T01:00:10.439Z,102731.41
2022-09-21T01:02:38.412Z,102736.38
2022-09-21T01:05:07.444Z,102727.59
2022-09-21T01:07:37.743Z,102724.28
2022-09-21T01:10:12.496Z,102730.53
2022-09-21T01:12:57.842Z,102731.91
2022-09-21T01:15:36.404Z,102723.88
2022-09-21T01:18:14.889Z,102732.53
2022-09-21T01:21:03.051Z,102728.94
2022-09-21T01:23:38.707Z,102726.16
2022-09-21T01:26:31.487Z,102726.41
2022-09-21T01:29:43.365Z,102722.66
2022-09-21T01:32:12.833Z,102722.94
2022-09-21T01:34:55.535Z,102722.97
2022-09-21T01:37:35.929Z,102720.19
2022-09-21T01:40:07.462Z,102719.19
2022-09-21T01:42:35.317Z,102724.41
2022-09-21T01:45:05.551Z,102724.47
2022-09-21T01:47:32.625Z,102728.94
2022-09-21T01:50:02.575Z,102719.94
2022-09-21T01:52:36.195Z,102732.16
2022-09-21T01:55:40.764Z,102728.84
2022-09-21T01:58:11.946Z,102731.72
2022-09-21T02:00:40.223Z,102732.59
2022-09-21T02:03:13.759Z,102718.31
2022-09-21T02:05:40.895Z,102722.22
2022-09-21T02:08:08.527Z,102721.25
2022-09-21T02:10:48.819Z,102722.09
2022-09-21T02:13:17.190Z,102725.25
2022-09-21T02:15:52.756Z,102726.84
2022-09-21T02:18:43.437Z,102727.63
2022-09-21T02:21:22.114Z,102726.66
2022-09-21T02:24:02.516Z,102729.03
2022-09-21T02:26:44.263Z,102726.72
2022-09-21T02:29:19.220Z,102731.41
2022-09-21T02:32:00.706Z,102732.75
2022-09-21T02:35:03.374Z,102732.03
2022-09-21T02:37:40.795Z,102731.28
2022-09-21T02:40:36.604Z,102726.63
2022-09-21T02:43:10.399Z,102729.53
2022-09-21T02:45:45.942Z,102719.94
2022-09-21T02:48:17.100Z,102725.69
2022-09-21T02:50:48.812Z,102722.88
2022-09-21T02:53:21.374Z,102720.84
2022-09-21T02:55:55.629Z,102719.53
2022-09-21T02:58:26.054Z,102714.13
2022-09-21T03:00:55.071Z,102717.28
2022-09-21T03:03:24.844Z,102724.03
2022-09-21T03:05:54.428Z,102727.19
2022-09-21T03:08:21.287Z,102716.84
2022-09-21T03:10:50.922Z,102715.06
2022-09-21T03:13:18.085Z,102723.63
2022-09-21T03:15:45.578Z,102728.34
2022-09-21T03:18:13.406Z,102727.31
2022-09-21T03:20:45.336Z,102729.94
2022-09-21T03:23:12.738Z,102728.16
2022-09-21T03:25:39.215Z,102728.97
2022-09-21T03:28:05.865Z,102732.88
2022-09-21T03:30:32.462Z,102735.75
2022-09-21T03:32:58.994Z,102734.47
2022-09-21T03:35:26.715Z,102741.75
2022-09-21T03:37:55.058Z,102741.22
2022-09-21T03:40:22.153Z,102739.44
2022-09-21T03:42:48.713Z,102738.94
2022-09-21T03:45:15.220Z,102735.31
2022-09-21T03:47:42.262Z,102741.56
2022-09-21T03:50:10.303Z,102735.84
2022-09-21T03:52:38.814Z,102742.34
2022-09-21T03:55:06.982Z,102746.56
2022-09-21T03:57:34.655Z,102742.66
2022-09-21T04:00:04.872Z,102742.41
2022-09-21T04:02:32.127Z,102734.13
2022-09-21T04:04:58.847Z,102738.81
2022-09-21T04:07:25.373Z,102739.88
2022-09-21T04:09:52.092Z,102732.34
2022-09-21T04:12:22.205Z,102733.13
2022-09-21T04:14:49.906Z,102732.91
2022-09-21T04:17:16.906Z,102729.53
2022-09-21T04:19:45.127Z,102730.31
2022-09-21T04:22:12.660Z,102725.13
2022-09-21T04:24:42.064Z,102727.19
2022-09-21T04:27:09.917Z,102727.75
2022-09-21T04:29:37.233Z,102732.44
2022-09-21T04:32:05.012Z,102727.75
2022-09-21T04:34:31.741Z,102736.56
2022-09-21T04:37:02.155Z,102734.03
2022-09-21T04:39:28.611Z,102733.25
2022-09-21T04:41:55.108Z,102733.25
2022-09-21T04:44:21.731Z,102728.31
2022-09-21T04:46:48.268Z,102726.28
2022-09-21T04:49:14.720Z,102734.81
2022-09-21T04:51:44.100Z,102725.78
2022-09-21T04:54:10.874Z,102732.78
2022-09-21T04:56:37.395Z,102721.63
2022-09-21T04:59:04.223Z,102729.13
2022-09-21T05:01:30.913Z,102731.47
2022-09-21T05:04:02.473Z,102737.69
2022-09-21T05:06:30.059Z,102735.09
2022-09-21T05:09:15.271Z,102733.56
2022-09-21T05:11:41.790Z,102740.03
2022-09-21T05:14:08.941Z,102745.22
2022-09-21T05:16:35.827Z,102750.19
2022-09-21T05:19:02.377Z,102753.53
2022-09-21T05:21:29.395Z,102751.22
2022-09-21T05:23:57.429Z,102755.84
2022-09-21T05:26:24.761Z,102758.44
2022-09-21T05:28:51.836Z,102757.69
2022-09-21T05:31:18.726Z,102756.91
2022-09-21T05:34:11.117Z,102758.72
2022-09-21T05:36:40.830Z,102756.38
2022-09-21T05:39:08.071Z,102762.09
2022-09-21T05:41:34.938Z,102757.94
2022-09-21T05:44:01.788Z,102762.59
2022-09-21T05:46:52.674Z,102759.25
2022-09-21T05:49:34.783Z,102759.00
2022-09-21T05:52:09.576Z,102762.63
2022-09-21T05:55:04.952Z,102767.78
2022-09-21T05:57:50.734Z,102764.94
2022-09-21T06:00:22.933Z,102765.97
2022-09-21T06:03:01.563Z,102774.78
2022-09-21T06:05:28.159Z,102772.97
2022-09-21T06:07:54.615Z,102772.97
2022-09-21T06:10:21.152Z,102770.66
2022-09-21T06:12:47.748Z,102778.69
2022-09-21T06:15:15.596Z,102789.28
2022-09-21T06:17:43.059Z,102786.19
2022-09-21T06:20:10.187Z,102788.00
2022-09-21T06:22:36.663Z,102788.25
2022-09-21T06:25:03.258Z,102794.97
2022-09-21T06:27:29.989Z,102790.59
2022-09-21T06:29:56.522Z,102786.94
2022-09-21T06:32:23.146Z,102796.78
2022-09-21T06:34:50.017Z,102788.50
2022-09-21T06:37:16.590Z,102790.59
2022-09-21T06:39:43.033Z,102798.59
2022-09-21T06:42:09.582Z,102797.31
2022-09-21T06:44:36.165Z,102798.59
2022-09-21T06:47:02.768Z,102803.78
2022-09-21T06:49:29.318Z,102812.78
2022-09-21T06:51:56.207Z,102817.22
2022-09-21T06:54:22.699Z,102809.97
2022-09-21T06:56:49.185Z,102817.22
2022-09-21T06:59:15.624Z,102806.09
2022-09-21T07:01:42.224Z,102812.84
2022-09-21T07:04:09.516Z,102813.38
2022-09-21T07:06:36.264Z,102811.81
2022-09-21T07:11:49.861Z,102827.63
2022-09-21T07:14:16.292Z,102823.47
2022-09-21T07:16:43.682Z,102830.22
2022-09-21T07:19:11.287Z,102836.94
2022-09-21T07:21:38.342Z,102826.31
2022-09-21T07:24:09.519Z,102821.91
2022-09-21T07:26:38.492Z,102822.97
2022-09-21T07:29:05.132Z,102822.47
2022-09-21T07:31:31.805Z,102819.59
2022-09-21T07:33:59.162Z,102827.34
2022-09-21T07:36:25.774Z,102830.22
2022-09-21T07:38:53.508Z,102826.31
2022-09-21T07:41:20.440Z,102826.22
2022-09-21T07:43:47.315Z,102823.56
2022-09-21T07:46:15.047Z,102823.72
2022-09-21T07:48:41.981Z,102827.06
2022-09-21T07:51:11.188Z,102825.13
2022-09-21T07:53:40.290Z,102827.34
2022-09-21T07:56:16.052Z,102829.13
2022-09-21T07:59:01.689Z,102830.28
2022-09-21T08:01:29.126Z,102820.59
2022-09-21T08:03:57.587Z,102820.69
2022-09-21T08:06:27.008Z,102824.28
2022-09-21T08:08:57.709Z,102821.13
2022-09-21T08:11:26.149Z,102808.09
2022-09-21T08:13:54.241Z,102806.81
2022-09-21T08:16:21.381Z,102814.06
2022-09-21T08:18:47.942Z,102810.69
2022-09-21T08:21:15.082Z,102817.91
2022-09-21T08:23:42.768Z,102808.50
2022-09-21T08:26:16.488Z,102821.34
2022-09-21T08:28:45.559Z,102818.00
2022-09-21T08:31:12.042Z,102819.31
2022-09-21T08:33:38.587Z,102826.09
2022-09-21T08:36:05.744Z,102825.03
2022-09-21T08:38:34.464Z,102836.34
2022-09-21T08:41:02.517Z,102820.78
2022-09-21T08:43:29.143Z,102824.00
2022-09-21T08:45:57.546Z,102828.59
2022-09-21T08:48:30.897Z,102828.13
2022-09-21T08:51:02.235Z,102824.66
2022-09-21T08:53:33.644Z,102822.81
2022-09-21T08:56:01.687Z,102827.78
2022-09-21T08:58:31.217Z,102829.75
2022-09-21T09:01:26.064Z,102827.44
2022-09-21T09:04:30.766Z,102819.94
2022-09-21T09:07:28.037Z,102835.72
2022-09-21T09:10:25.658Z,102827.44
2022-09-21T09:13:25.516Z,102822.41
2022-09-21T09:16:25.730Z,102823.94
2022-09-21T09:19:15.545Z,102828.81
2022-09-21T09:21:44.373Z,102829.88
2022-09-21T09:24:17.925Z,102830.78
2022-09-21T09:26:53.485Z,102832.25
2022-09-21T09:29:28.486Z,102830.59
2022-09-21T09:31:58.103Z,102832.19
2022-09-21T09:34:32.549Z,102821.72
2022-09-21T09:37:05.602Z,102827.47
2022-09-21T09:39:32.135Z,102816.75
2022-09-21T09:42:40.629Z,102827.75
2022-09-21T09:45:25.335Z,102827.56
2022-09-21T09:48:03.038Z,102822.59
2022-09-21T09:50:34.264Z,102827.09
2022-09-21T09:53:12.144Z,102829.72
2022-09-21T09:55:43.720Z,102825.59
2022-09-21T09:58:21.508Z,102819.22
2022-09-21T10:00:53.170Z,102823.25
2022-09-21T10:03:28.692Z,102812.88
2022-09-21T10:05:55.868Z,102817.31
2022-09-21T10:08:30.721Z,102819.69
2022-09-21T10:10:57.703Z,102814.56
2022-09-21T10:13:30.902Z,102818.22
2022-09-21T10:16:06.988Z,102815.09
2022-09-21T10:18:53.073Z,102816.50
2022-09-21T10:21:24.904Z,102814.97
2022-09-21T10:23:58.595Z,102807.94
2022-09-21T10:26:32.656Z,102817.50
2022-09-21T10:29:01.417Z,102809.84
2022-09-21T10:31:31.785Z,102814.13
2022-09-21T10:34:04.600Z,102817.41
2022-09-21T10:36:36.726Z,102815.00
2022-09-21T10:39:19.154Z,102808.97
2022-09-21T10:42:05.834Z,102805.63
2022-09-21T10:44:45.536Z,102806.81
2022-09-21T10:47:24.252Z,102810.72
2022-09-21T10:49:53.640Z,102809.56
2022-09-21T10:52:24.244Z,102814.38
2022-09-21T10:54:54.490Z,102808.84
2022-09-21T10:57:23.769Z,102793.94
2022-09-21T10:59:50.315Z,102795.56
2022-09-21T11:02:32.100Z,102796.81
2022-09-21T11:05:01.764Z,102797.69
2022-09-21T11:07:45.130Z,102795.41
2022-09-21T11:10:49.110Z,102788.19
2022-09-21T11:13:33.029Z,102790.00
2022-09-21T11:16:21.876Z,102798.38
2022-09-21T11:19:05.916Z,102797.50
2022-09-21T11:21:36.501Z,102787.78
2022-09-21T11:24:27.161Z,102787.78
2022-09-21T11:27:04.711Z,102785.88
2022-09-21T11:29:38.318Z,102782.19
2022-09-21T11:32:13.632Z,102790.97
2022-09-21T11:34:58.568Z,102783.41
2022-09-21T11:37:50.831Z,102780.38
2022-09-21T11:40:20.357Z,102768.56
2022-09-21T11:43:12.148Z,102774.63
2022-09-21T11:46:16.977Z,102771.31
2022-09-21T11:48:53.015Z,102771.72
2022-09-21T11:52:01.556Z,102768.34
2022-09-21T11:54:45.331Z,102772.13
2022-09-21T11:57:28.535Z,102771.75
2022-09-21T12:00:17.505Z,102764.94
2022-09-21T12:03:00.763Z,102762.63
2022-09-21T12:05:55.404Z,102754.66
2022-09-21T12:08:37.121Z,102763.78
2022-09-21T12:11:13.574Z,102759.94
2022-09-21T12:13:59.221Z,102754.56
2022-09-21T12:16:47.070Z,102756.41
2022-09-21T12:19:24.766Z,102756.00
2022-09-21T12:21:56.861Z,102757.09
2022-09-21T12:24:32.052Z,102752.88
2022-09-21T12:27:05.431Z,102752.56
2022-09-21T12:29:39.489Z,102750.25
2022-09-21T12:32:19.772Z,102752.75
2022-09-21T12:34:53.522Z,102746.31
2022-09-21T12:37:37.190Z,102747.66
2022-09-21T12:40:19.433Z,102741.69
2022-09-21T12:42:55.009Z,102740.38
2022-09-21T12:45:24.072Z,102739.50
2022-09-21T12:48:05.686Z,102740.53
2022-09-21T12:50:49.724Z,102741.31
2022-09-21T12:53:20.747Z,102732.16
2022-09-21T12:56:32.338Z,102736.31
2022-09-21T12:59:20.807Z,102726.53
2022-09-21T13:02:33.526Z,102719.09
2022-09-21T13:05:11.928Z,102726.13
2022-09-21T13:07:44.572Z,102715.72
2022-09-21T13:10:22.403Z,102725.50
2022-09-21T13:12:56.169Z,102715.06
2022-09-21T13:15:27.224Z,102711.56
2022-09-21T13:18:18.164Z,102709.41
2022-09-21T13:20:45.561Z,102708.16
2022-09-21T13:23:20.705Z,102709.91
2022-09-21T13:25:50.427Z,102713.41
2022-09-21T13:28:16.862Z,102713.00
2022-09-21T13:30:49.122Z,102703.84
2022-09-21T13:33:22.280Z,102708.19
2022-09-21T13:36:03.857Z,102702.41
2022-09-21T13:38:31.079Z,102701.97
2022-09-21T13:41:17.780Z,102695.44
2022-09-21T13:43:46.972Z,102696.19
2022-09-21T13:46:35.282Z,102697.16
2022-09-21T13:49:10.801Z,102688.31
2022-09-21T13:52:00.239Z,102693.88
2022-09-21T13:54:31.967Z,102683.72
2022-09-21T13:57:21.261Z,102675.72
2022-09-21T14:00:06.185Z,102684.91
2022-09-21T14:02:36.826Z,102680.19
2022-09-21T14:05:34.143Z,102683.09
2022-09-21T14:08:20.555Z,102685.16
2022-09-21T14:10:55.768Z,102678.59
2022-09-21T14:13:28.642Z,102678.91
2022-09-21T14:15:55.302Z,102674.28
2022-09-21T14:18:37.455Z,102674.22
2022-09-21T14:21:08.343Z,102676.63
2022-09-21T14:23:36.794Z,102678.16
2022-09-21T14:26:39.712Z,102677.97
2022-09-21T14:29:15.753Z,102671.44
2022-09-21T14:31:43.118Z,102670.78
2022-09-21T14:34:21.889Z,102672.44
2022-09-21T14:36:53.953Z,102669.19
2022-09-21T14:39:32.956Z,102673.50
2022-09-21T14:42:08.465Z,102664.03
2022-09-21T14:44:36.818Z,102670.34
2022-09-21T14:47:28.809Z,102655.94
2022-09-21T14:50:15.058Z,102660.63
2022-09-21T14:53:12.664Z,102653.09
2022-09-21T14:55:46.149Z,102644.16
2022-09-21T14:58:36.319Z,102653.50
2022-09-21T15:01:41.012Z,102651.97
2022-09-21T15:04:18.979Z,102645.13
2022-09-21T15:07:27.463Z,102647.94
2022-09-21T15:10:47.694Z,102641.53
2022-09-21T15:13:36.539Z,102639.69
2022-09-21T15:16:22.077Z,102641.69
2022-09-21T15:18:51.406Z,102638.81
2022-09-21T15:21:24.210Z,102629.44
2022-09-21T15:23:52.972Z,102636.38
2022-09-21T15:26:26.537Z,102629.25
2022-09-21T15:29:09.705Z,102630.88
2022-09-21T15:31:42.866Z,102629.19
2022-09-21T15:34:13.318Z,102635.75
2022-09-21T15:36:41.738Z,102629.78
2022-09-21T15:39:23.069Z,102629.50
2022-09-21T15:42:01.248Z,102632.28
2022-09-21T15:44:33.189Z,102628.69
2022-09-21T15:47:03.049Z,102618.13
2022-09-21T15:49:30.099Z,102624.00
2022-09-21T15:52:12.952Z,102623.75
2022-09-21T15:54:46.561Z,102626.53
2022-09-21T15:57:43.277Z,102619.44
2022-09-21T16:00:15.823Z,102621.84
2022-09-21T16:03:12.445Z,102612.91
2022-09-21T16:05:51.867Z,102615.72
2022-09-21T16:08:26.288Z,102605.53
2022-09-21T16:10:53.049Z,102604.50
2022-09-21T16:13:44.152Z,102605.72
2022-09-21T16:16:14.115Z,102615.31
2022-09-21T16:18:51.905Z,102614.25
2022-09-21T16:21:27.828Z,102611.31
2022-09-21T16:24:09.799Z,102613.25
2022-09-21T16:26:38.556Z,102608.00
2022-09-21T16:29:08.522Z,102608.44
2022-09-21T16:31:37.297Z,102608.84
2022-09-21T16:34:17.778Z,102607.00
2022-09-21T16:36:45.697Z,102613.88
2022-09-21T16:39:15.409Z,102616.91
2022-09-21T16:41:51.923Z,102605.53
2022-09-21T16:44:21.154Z,102606.31
2022-09-21T16:46:53.806Z,102614.25
2022-09-21T16:49:42.533Z,102609.31
2022-09-21T16:52:09.368Z,102615.75
2022-09-21T16:54:37.460Z,102616.47
2022-09-21T16:57:06.267Z,102609.97
2022-09-21T16:59:34.731Z,102615.63
2022-09-21T17:02:04.253Z,102617.81
2022-09-21T17:04:34.049Z,102619.63
2022-09-21T17:07:02.598Z,102610.84
2022-09-21T17:09:38.519Z,102617.56
2022-09-21T17:12:07.961Z,102617.44
2022-09-21T17:14:36.386Z,102610.50
2022-09-21T17:17:26.809Z,102614.94
2022-09-21T17:19:54.989Z,102620.81
2022-09-21T17:22:29.182Z,102616.16
2022-09-21T17:24:55.864Z,102614.09
2022-09-21T17:27:24.156Z,102611.28
2022-09-21T17:29:50.962Z,102616.00
2022-09-21T17:32:23.572Z,102612.81
2022-09-21T17:35:35.344Z,102615.59
2022-09-21T17:38:02.424Z,102619.56
2022-09-21T17:40:30.134Z,102611.72
2022-09-21T17:43:30.221Z,102610.38
2022-09-21T17:46:11.566Z,102609.69
2022-09-21T17:48:40.291Z,102615.19
2022-09-21T17:51:07.626Z,102617.16
2022-09-21T17:53:34.742Z,102612.41
2022-09-21T17:56:18.997Z,102613.31
2022-09-21T17:58:57.066Z,102613.81
2022-09-21T18:01:31.144Z,102611.66
2022-09-21T18:03:58.635Z,102618.16
2022-09-21T18:06:26.059Z,102604.34
2022-09-21T18:08:54.124Z,102607.75
2022-09-21T18:11:42.383Z,102611.78
2022-09-21T18:14:25.096Z,102613.66
2022-09-21T18:17:33.284Z,102614.78
2022-09-21T18:20:38.906Z,102621.63
2022-09-21T18:23:32.989Z,102625.34
2022-09-21T18:26:00.529Z,102621.34
2022-09-21T18:28:44.966Z,102627.34
2022-09-21T18:31:20.619Z,102624.34
2022-09-21T18:34:29.332Z,102622.19
2022-09-21T18:37:12.865Z,102619.59
2022-09-21T18:39:57.514Z,102623.78
2022-09-21T18:42:30.049Z,102625.69
2022-09-21T18:45:05.612Z,102629.53
2022-09-21T18:47:50.883Z,102629.09
2022-09-21T18:50:41.805Z,102625.84
2022-09-21T18:53:17.259Z,102624.41
2022-09-21T18:55:45.060Z,102620.34
2022-09-21T18:58:12.547Z,102622.97
2022-09-21T19:00:39.324Z,102621.72
2022-09-21T19:03:17.682Z,102626.41
2022-09-21T19:06:15.529Z,102633.53
2022-09-21T19:08:46.414Z,102639.16
2022-09-21T19:11:25.039Z,102636.94
2022-09-21T19:14:20.613Z,102642.56
2022-09-21T19:17:02.383Z,102642.84
2022-09-21T19:19:49.913Z,102645.22
2022-09-21T19:22:24.509Z,102651.25
2022-09-21T19:25:21.588Z,102642.44
2022-09-21T19:28:11.102Z,102639.84
2022-09-21T19:30:38.734Z,102641.44
2022-09-21T19:33:48.909Z,102640.59
2022-09-21T19:36:19.803Z,102645.56
2022-09-21T19:38:46.951Z,102638.97
2022-09-21T19:41:44.112Z,102645.34
2022-09-21T19:44:57.629Z,102642.75
2022-09-21T19:47:29.481Z,102648.34
2022-09-21T19:50:17.532Z,102647.13
2022-09-21T19:52:48.344Z,102646.81
2022-09-21T19:55:39.737Z,102648.66
2022-09-21T19:58:25.289Z,102644.22
2022-09-21T20:00:55.992Z,102645.31
2022-09-21T20:03:44.862Z,102637.03
2022-09-21T20:06:27.125Z,102637.91
2022-09-21T20:09:20.455Z,102645.00
2022-09-21T20:12:12.995Z,102645.00
2022-09-21T20:15:02.952Z,102652.53
2022-09-21T20:17:39.318Z,102641.31
2022-09-21T20:20:27.392Z,102647.00
2022-09-21T20:22:54.962Z,102649.56
2022-09-21T20:25:39.055Z,102643.25
2022-09-21T20:28:11.479Z,102642.00
2022-09-21T20:30:42.566Z,102638.75
2022-09-21T20:33:15.664Z,102638.41
2022-09-21T20:35:46.308Z,102639.44
2022-09-21T20:38:15.317Z,102635.41
2022-09-21T20:40:45.214Z,102640.44
2022-09-21T20:43:14.210Z,102634.88
2022-09-21T20:45:40.963Z,102636.81
2022-09-21T20:48:14.581Z,102634.66
2022-09-21T20:50:41.978Z,102641.81
2022-09-21T20:53:09.121Z,102635.19
2022-09-21T20:55:35.745Z,102633.78
2022-09-21T20:58:03.052Z,102635.44
2022-09-21T21:00:29.548Z,102621.72
2022-09-21T21:02:59.530Z,102628.63
2022-09-21T21:05:27.316Z,102628.25
2022-09-21T21:07:53.797Z,102630.97
2022-09-21T21:10:21.298Z,102629.53
2022-09-21T21:12:48.507Z,102624.47
2022-09-21T21:15:15.992Z,102629.00
2022-09-21T21:17:42.783Z,102629.59
2022-09-21T21:20:10.157Z,102633.84
2022-09-21T21:22:36.895Z,102628.44
2022-09-21T21:25:03.921Z,102624.72
2022-09-21T21:27:31.002Z,102631.25
2022-09-21T21:29:58.521Z,102629.06
2022-09-21T21:32:26.563Z,102630.72
2022-09-21T21:34:54.314Z,102629.75
2022-09-21T21:37:23.334Z,102631.97
2022-09-21T21:39:49.946Z,102629.16
2022-09-21T21:42:16.800Z,102632.47
2022-09-21T21:44:43.827Z,102631.50
2022-09-21T21:47:37.741Z,102636.53
2022-09-21T21:49:57.810Z,102637.38
2022-09-21T21:52:24.353Z,102630.91
2022-09-21T21:54:50.901Z,102627.91
2022-09-21T21:57:17.396Z,102623.88
2022-09-21T21:59:43.923Z,102626.25
2022-09-21T22:02:10.620Z,102623.47
2022-09-21T22:04:37.259Z,102625.09
2022-09-21T22:07:04.183Z,102624.13
2022-09-21T22:09:30.808Z,102621.31
2022-09-21T22:11:58.888Z,102618.56
2022-09-21T22:14:25.434Z,102615.47
2022-09-21T22:16:52.383Z,102609.38
2022-09-21T22:19:19.050Z,102618.78
2022-09-21T22:21:51.744Z,102622.16
2022-09-21T22:24:21.140Z,102619.66
2022-09-21T22:26:48.665Z,102611.91
2022-09-21T22:29:16.619Z,102611.72
2022-09-21T22:31:46.238Z,102610.75
2022-09-21T22:34:13.216Z,102617.03
2022-09-21T22:36:39.994Z,102616.28
2022-09-21T22:39:08.005Z,102621.59
2022-09-21T22:41:37.189Z,102618.50
2022-09-21T22:44:04.085Z,102623.78
2022-09-21T22:46:31.729Z,102623.00
2022-09-21T22:49:00.142Z,102621.25
2022-09-21T22:51:27.675Z,102619.50
2022-09-21T22:53:54.263Z,102614.09
2022-09-21T22:56:26.683Z,102618.81
2022-09-21T22:58:57.332Z,102620.94
2022-09-21T23:01:29.703Z,102618.88
2022-09-21T23:04:01.850Z,102612.22
2022-09-21T23:06:33.488Z,102613.03
2022-09-21T23:09:02.075Z,102608.69
2022-09-21T23:11:31.561Z,102607.44
2022-09-21T23:13:59.516Z,102608.47
2022-09-21T23:16:27.983Z,102601.22
2022-09-21T23:18:55.391Z,102604.69
2022-09-21T23:21:24.606Z,102602.88
2022-09-21T23:23:54.941Z,102602.97
2022-09-21T23:26:23.227Z,102596.78
2022-09-21T23:29:00.673Z,102603.06
2022-09-21T23:31:27.960Z,102600.22
2022-09-21T23:33:57.165Z,102599.22
2022-09-21T23:36:26.746Z,102600.28
2022-09-21T23:38:54.019Z,102601.63
2022-09-21T23:41:26.368Z,102598.78
2022-09-21T23:43:53.183Z,102597.81
2022-09-21T23:46:22.555Z,102593.19
2022-09-21T23:48:49.689Z,102593.22
2022-09-21T23:51:17.005Z,102588.59
2022-09-21T23:53:44.080Z,102595.38
2022-09-21T23:56:14.364Z,102593.31
2022-09-21T23:58:41.101Z,102587.66
